الصفحة الرئيسية
METAR-TAF:

METAR-TAF

مطار :

Vardø, النرويج

دائرة عرض: 70-21N, خط طول: 031-03E, ارتفاع: 12 متر

مراقبة الطقس الحالي

تاريخ ووقت الإصدار 36 دقيقة قبل الساعة 10:20UTC
ريح 9 عقدة من الجنوب
درجة الحرارة 3°درجة مئوية
الرطوبة 87%
ضغط 1015 hPa
الرؤية 10 كم أو أكثر
غيوم قليلة على ارتفاع 3000 قدم
غيوم مفككة على ارتفاع 4300 قدم

METAR: ENSS 251020Z 17009KT 9999 FEW030 BKN043 03/01 Q1015 RMK WIND 0500FT 20014KT

زمن: 12:56 (10:56 UTC)

توقعات

تاريخ ووقت الإصدار 2ساعات و 56 دقيقة قبل الساعة 08:00UTC
التوقعات صالحة من25 الساعة 09 UTC إلى 25 الساعة 18 UTC
ريح 12 عقدة من الجنوب/الجنوب الشرقي
الرؤية 10 كم أو أكثر
غيوم متفرقة على ارتفاع 1500 قدم
مؤقت
من 25 الساعة 09 UTC إلى 25 الساعة 12 UTC
غيوم مفككة على ارتفاع 900 قدم
رذاذ خفيف,

TAF: ENSS 250800Z 2509/2518 16012KT 9999 SCT015 TEMPO 2509/2512 -DZ BKN009

أرصاد الطقس والتوقعات من أكثر من 4000 مطار (تقارير الطقس للمطار METAR والتنبؤ بالطقس بالمطارTAF).

المحطات المتاحة هي النقط الصفراء والحمراء على الخريطة.

حرك المؤشر فوق النقطة لمعرفة اسم المحطة.

ثم انقر لمعرفة أرصاد وتوقعات الطقس.

لتغيير الخارطة: اضغط على الأزرار الخضراء مع رمز الصليب الأسود للتكبير. على الزر الأخضر مع شرطة للتصغير، أو على الأسهم الخضراء للخرائط المجاورة.


METAR-TAF: